Stations météo

réclame
Mon MeteoGroup
Lycksele, Suède (2262): Température de l'air & dewpoint: 18.10.2018 07:00:00 - 24.10.2018 07:00:00 (CEST)Lycksele, Suède (2262): Vitesse du vent: 18.10.2018 07:00:00 - 24.10.2018 07:00:00 (CEST)Lycksele, Suède (2262): Direction du vent: 18.10.2018 07:00:00 - 24.10.2018 07:00:00 (CEST)Lycksele, Suède (2262): visibility: 18.10.2018 07:00:00 - 24.10.2018 07:00:00 (CEST)
Date & Time tt [°C] td [°C] ff [km/h] ff [knt] dd vv [km]
24.10.2018 07:00:00 -5,0 -7,0 5 3 WSW 10
24.10.2018 06:00:00 -5,0 -7,0 5 3 - 10
24.10.2018 05:00:00 -4,0 -6,0 5 3 NNW 10
24.10.2018 04:00:00 -3,0 -5,0 5 3 WNW 10
24.10.2018 03:00:00 -3,0 -6,0 8 4 NW 10
24.10.2018 02:00:00 -4,0 -6,0 5 3 W 10
24.10.2018 01:00:00 -1,0 -4,0 11 6 WNW 10
24.10.2018 00:00:00 1,0 -3,0 15 8 WNW 10
23.10.2018 23:00:00 0,0 -2,0 9 5 WNW 10
23.10.2018 22:00:00 1,0 -1,0 11 6 WNW 10
23.10.2018 21:00:00 1,0 -1,0 9 5 NW 10
23.10.2018 20:00:00 0,0 -2,0 5 3 NW 10
23.10.2018 19:00:00 0,0 -3,0 8 4 W 10
23.10.2018 18:00:00 -1,0 -4,0 0 0 N 10
23.10.2018 17:00:00 1,0 -3,0 4 2 - 10
23.10.2018 16:00:00 2,0 -3,0 4 2 NW 10
23.10.2018 15:00:00 2,0 -3,0 5 3 - 10
23.10.2018 14:00:00 3,0 -3,0 4 2 - 10
23.10.2018 13:00:00 3,0 -2,0 4 2 - 10
23.10.2018 12:00:00 2,0 -2,0 5 3 - 10
23.10.2018 11:00:00 0,0 -3,0 4 2 - 10
23.10.2018 10:00:00 -4,0 -6,0 0 0 N 10
23.10.2018 09:00:00 -5,0 -7,0 2 1 - 10
23.10.2018 08:00:00 -6,0 -7,0 0 0 N 10
23.10.2018 07:00:00 -5,0 -6,0 0 0 N 10
23.10.2018 06:00:00 - - - - - -
23.10.2018 05:00:00 -4,0 -5,0 2 1 - 10
23.10.2018 04:00:00 -3,0 -5,0 0 0 N 10
23.10.2018 03:00:00 -2,0 -4,0 2 1 S 10
23.10.2018 02:00:00 -1,0 -4,0 4 2 N 10
23.10.2018 01:00:00 -1,0 -5,0 4 2 ENE 10
23.10.2018 00:00:00 1,0 -4,0 11 6 WSW 10
22.10.2018 23:00:00 1,0 -3,0 13 7 WSW 10
22.10.2018 22:00:00 2,0 -3,0 15 8 W 10
22.10.2018 21:00:00 2,0 -3,0 13 7 W 10
22.10.2018 20:00:00 4,0 -3,0 18 10 W 10
22.10.2018 19:00:00 4,0 -2,0 16 9 W 10
22.10.2018 18:00:00 4,0 -2,0 11 6 W 10
22.10.2018 17:00:00 4,0 -1,0 18 10 WSW 10
22.10.2018 16:00:00 5,0 -3,0 16 9 WSW 10
22.10.2018 15:00:00 5,0 -3,0 15 8 W 10
22.10.2018 14:00:00 6,0 -1,0 22 12 WSW 10
22.10.2018 13:00:00 6,0 -2,0 13 7 WSW 10
22.10.2018 12:00:00 5,0 -2,0 16 9 WSW 10
22.10.2018 11:00:00 5,0 -2,0 15 8 SW 10
22.10.2018 10:00:00 4,0 -1,0 9 5 SW 10
22.10.2018 09:00:00 3,0 -1,0 8 4 WSW 10
22.10.2018 08:00:00 2,0 -1,0 9 5 SSW 10
22.10.2018 07:00:00 2,0 -2,0 9 5 WSW 10
22.10.2018 06:00:00 2,0 -1,0 8 4 WSW 10
22.10.2018 05:00:00 3,0 -1,0 9 5 W 10
22.10.2018 04:00:00 3,0 -1,0 9 5 W 10
22.10.2018 03:00:00 4,0 -1,0 11 6 W 10
22.10.2018 02:00:00 5,0 1,0 11 6 WSW 10
22.10.2018 01:00:00 6,0 3,0 8 4 WSW 10
22.10.2018 00:00:00 6,0 3,0 4 2 - 10
21.10.2018 23:00:00 6,0 4,0 4 2 - 10
21.10.2018 22:00:00 7,0 3,0 5 3 SW 10
21.10.2018 21:00:00 7,0 3,0 5 3 - 10
21.10.2018 20:00:00 8,0 3,0 8 4 WSW 10
21.10.2018 19:00:00 8,0 3,0 5 3 S 10
21.10.2018 18:00:00 8,0 3,0 9 5 SSW 10
21.10.2018 17:00:00 8,0 3,0 11 6 S 10
21.10.2018 16:00:00 9,0 4,0 9 5 SSW 10
21.10.2018 15:00:00 9,0 5,0 13 7 SW 10
21.10.2018 14:00:00 8,0 4,0 13 7 SSW 10
21.10.2018 13:00:00 8,0 4,0 11 6 SSW 10
21.10.2018 12:00:00 8,0 4,0 8 4 SSE 10
21.10.2018 11:00:00 6,0 4,0 11 6 SSE 10
21.10.2018 10:00:00 6,0 3,0 8 4 SSE 10
21.10.2018 09:00:00 5,0 3,0 11 6 S 10
21.10.2018 08:00:00 5,0 2,0 9 5 SSE 10
21.10.2018 07:00:00 5,0 2,0 11 6 S 10
21.10.2018 06:00:00 4,0 2,0 15 8 SSE 10
21.10.2018 05:00:00 4,0 2,0 18 10 SE 10
21.10.2018 04:00:00 4,0 2,0 15 8 SE 10
21.10.2018 03:00:00 4,0 1,0 16 9 SE 10
21.10.2018 02:00:00 3,0 1,0 9 5 SE 10
21.10.2018 01:00:00 1,0 -1,0 8 4 ESE 10
21.10.2018 00:00:00 1,0 0,0 8 4 SE 10
20.10.2018 23:00:00 0,0 -1,0 4 2 - 10
20.10.2018 22:00:00 0,0 -1,0 5 3 SSE 10
20.10.2018 21:00:00 0,0 -2,0 0 0 N 2,1
20.10.2018 20:00:00 0,0 -1,0 4 2 SSE 10
20.10.2018 19:00:00 0,0 -1,0 0 0 N 10
20.10.2018 18:00:00 2,0 1,0 4 2 E 10
20.10.2018 17:00:00 5,0 3,0 0 0 N 10
20.10.2018 16:00:00 8,0 4,0 4 2 - 10
20.10.2018 15:00:00 7,0 4,0 4 2 - 10
20.10.2018 14:00:00 7,0 4,0 5 3 SW 10
20.10.2018 13:00:00 7,0 5,0 5 3 SW 10
20.10.2018 12:00:00 6,0 5,0 0 0 N 10
20.10.2018 11:00:00 4,0 3,0 4 2 ESE 10
20.10.2018 10:00:00 4,0 2,0 4 2 SSE 10
20.10.2018 09:00:00 2,0 1,0 0 0 N 10
20.10.2018 08:00:00 2,0 0,0 0 0 N 10
20.10.2018 07:00:00 2,0 0,0 0 0 N 10
20.10.2018 06:00:00 1,0 0,0 0 0 N 10
20.10.2018 05:00:00 1,0 -1,0 5 3 SSE 10
20.10.2018 04:00:00 1,0 -1,0 0 0 N 10
20.10.2018 03:00:00 1,0 -1,0 4 2 SSE 10
20.10.2018 02:00:00 1,0 -1,0 0 0 N 10
20.10.2018 01:00:00 1,0 -2,0 0 0 N 10
20.10.2018 00:00:00 2,0 -1,0 0 0 N 10
19.10.2018 23:00:00 2,0 -1,0 0 0 N 10
19.10.2018 22:00:00 2,0 -1,0 0 0 N 10
19.10.2018 21:00:00 1,0 -2,0 0 0 N 10
19.10.2018 20:00:00 1,0 -2,0 5 3 W 10
19.10.2018 19:00:00 2,0 -3,0 5 3 - 10
19.10.2018 18:00:00 4,0 -2,0 9 5 W 10
19.10.2018 17:00:00 4,0 -1,0 11 6 W 10
19.10.2018 16:00:00 8,0 -1,0 11 6 WNW 10
19.10.2018 15:00:00 9,0 0,0 18 10 WNW 10
19.10.2018 14:00:00 9,0 0,0 21 11 WNW 10
19.10.2018 13:00:00 9,0 0,0 21 11 WNW 10
19.10.2018 12:00:00 8,0 0,0 22 12 WNW 10
19.10.2018 11:00:00 7,0 0,0 13 7 W 10
19.10.2018 10:00:00 6,0 0,0 18 10 W 10
19.10.2018 09:00:00 5,0 0,0 11 6 WSW 10
19.10.2018 08:00:00 5,0 0,0 13 7 W 10
19.10.2018 07:00:00 5,0 0,0 15 8 W 10
19.10.2018 06:00:00 5,0 0,0 9 5 W 10
19.10.2018 05:00:00 5,0 0,0 9 5 W 10
19.10.2018 04:00:00 6,0 0,0 16 9 W 10
19.10.2018 03:00:00 5,0 0,0 16 9 W 10
19.10.2018 02:00:00 5,0 0,0 11 6 W 10
19.10.2018 01:00:00 6,0 0,0 15 8 W 10
19.10.2018 00:00:00 6,0 0,0 16 9 W 10
18.10.2018 23:00:00 6,0 0,0 15 8 W 10
18.10.2018 22:00:00 6,0 1,0 13 7 W 10
18.10.2018 21:00:00 6,0 0,0 16 9 W 10
18.10.2018 20:00:00 7,0 1,0 18 10 W 10
18.10.2018 19:00:00 7,0 1,0 18 10 W 10
18.10.2018 18:00:00 7,0 0,0 18 10 W 10
18.10.2018 17:00:00 8,0 0,0 21 11 W 10
18.10.2018 16:00:00 8,0 0,0 15 8 WSW 10
18.10.2018 15:00:00 9,0 0,0 16 9 W 10
18.10.2018 14:00:00 9,0 0,0 21 11 W 10
18.10.2018 13:00:00 8,0 0,0 21 11 W 10
18.10.2018 12:00:00 8,0 1,0 16 9 WSW 10
18.10.2018 11:00:00 8,0 1,0 16 9 W 10
18.10.2018 10:00:00 6,0 1,0 5 3 - 10
18.10.2018 09:00:00 1,0 0,0 4 2 - 10
18.10.2018 08:00:00 -1,0 -2,0 0 0 N 10
18.10.2018 07:00:00 1,0 -1,0 0 0 N 10

tt = Température de l'air
td = dewpoint
ff = Vitesse du vent
dd = Direction du vent
vv = visibility

stations d'obs. à proximité